Lebork, Poland

12:44 PM CEST on March 30, 2015 (GMT +0200)
Luzino | | Change Station
CLOSE
Current Station
Personal Weather Station
Location: Luzino, WOJ. POMORSKIE
Elevation: 331 ft
Nearby Weather Stations
Active Advisory: Wind english:

Elev 331 ft 54.57 °N, 18.10 °E | Updated 4 minutes ago

Light Rain Showers
Light Showers Rain
38.3 °F
Feels Like 31 °F
N
12.1
Wind Variable Wind from SW
Gusts 28.2 mph

Today
High -- | Low -- °F
--% Chance of Precip.
Yesterday
High -- | Low -- °F
Precip. -- in
6:27 AM 7:20 PM
Waxing Gibbous, 79% visible
Pressure 28.88 in
Visibility 6.2 miles
Clouds Mostly Cloudy 1300 ft
Windchill 31 °F
Dew Point 38 °F
Humidity 99%
Rainfall 0.61 in
Snow Depth Not available.
UV 3 out of 12
Pollen Not available.
Air Quality Not available.
Flu Activity Not available.
METAR EPGD 301030Z 25017KT 9999 -SHRA BKN013 04/03 Q0978

More Conditions Fewer Conditions

Pressure 28.88 in
Visibility 6.2 miles
Clouds Mostly Cloudy 1300 ft
Windchill 31 °F
Dew Point 38 °F
Humidity 99%
Rainfall 0.61 in
Snow Depth Not available.
UV 3 out of 12
Pollen Not available.
Air Quality Not available.
Flu Activity Not available.
METAR EPGD 301030Z 25017KT 9999 -SHRA BKN013 04/03 Q0978

More Conditions Fewer Conditions

10-Day Weather Forecast

Almanac

Astronomy

Mar. 30, 2015 Rise Set
Actual Time
Civil Twilight
Nautical Twilight
Astronomical Twilight
Moon
Length of Visible Light
Length of Day
Tomorrow will be .
, % of the Moon is Illuminated

Today's Extremes

Country Highs Country Lows

Community

WunderPhotos

Upload Photos

1,809,455 photos uploaded!

WunderBlogs® & News

Nearby

Air Quality

  Air Quality AQ Index Pollutant
Not available.

Snow Depth

Station Depth Elevation

Earthquake Activity

City Distance Mag. Time & Date
Minimum magnitude displayed is 2.5.

Coastal Water Temperatures

Place Temperature

Stations

Nearby Weather Stations

Station Location Temp. Windchill Dew Point Humidity Wind Precip. Elev Updated Type